Time;durP1;ratioP1;P1;durP2;ratioP2;P2;SDS_P1;SDS_P2;PMS_P1;PMS_P2;Temp;Humidity;BMP_temperature;BMP_pressure;BME280_temperature;BME280_humidity;BME280_pressure;Samples;Min_cycle;Max_cycle;Signal;HPM_P1;HPM_P2
2022/07/04 00:01:22;;;;;;;8.18;6.95;;;11.80;99.90;;;;;;4844309;29;20060;-86
2022/07/04 00:03:47;;;;;;;11.40;7.63;;;11.80;99.90;;;;;;4846739;29;20088;-85
2022/07/04 00:06:13;;;;;;;11.43;7.75;;;11.80;99.90;;;;;;4857965;29;20056;-83
2022/07/04 00:08:39;;;;;;;10.77;7.38;;;11.70;99.90;;;;;;4816298;29;20097;-84
2022/07/04 00:11:04;;;;;;;9.38;7.32;;;11.80;99.90;;;;;;4847748;29;20055;-85
2022/07/04 00:13:30;;;;;;;11.30;6.97;;;11.80;99.90;;;;;;4850091;29;20067;-84
2022/07/04 00:15:56;;;;;;;8.90;7.22;;;11.70;99.90;;;;;;4847263;29;20072;-86
2022/07/04 00:18:21;;;;;;;8.90;7.45;;;11.80;99.90;;;;;;4865032;29;20139;-85
2022/07/04 00:20:47;;;;;;;9.55;6.82;;;11.80;99.90;;;;;;4849275;29;20075;-87
2022/07/04 00:23:12;;;;;;;12.57;7.43;;;11.80;99.90;;;;;;4847972;29;20053;-88
2022/07/04 00:25:38;;;;;;;11.85;7.65;;;11.80;99.90;;;;;;4860465;29;20486;-87
2022/07/04 00:28:04;;;;;;;13.57;7.85;;;11.80;99.90;;;;;;4830624;29;20045;-87
2022/07/04 00:30:30;;;;;;;11.90;7.60;;;11.70;99.90;;;;;;4859912;29;20057;-87
2022/07/04 00:32:55;;;;;;;11.40;7.80;;;11.70;99.90;;;;;;4830073;29;20052;-89
2022/07/04 00:35:21;;;;;;;11.30;8.65;;;11.70;99.90;;;;;;4826220;29;20056;-86
2022/07/04 00:37:47;;;;;;;11.57;8.50;;;11.70;99.90;;;;;;4844866;29;20072;-87
2022/07/04 00:40:12;;;;;;;15.85;8.85;;;11.70;99.90;;;;;;4845648;29;20060;-90
2022/07/04 00:42:38;;;;;;;11.32;8.23;;;11.70;99.90;;;;;;4865680;29;20426;-87
2022/07/04 00:45:04;;;;;;;13.07;8.38;;;11.70;99.90;;;;;;4838250;29;20048;-86
2022/07/04 00:47:30;;;;;;;12.98;8.93;;;11.60;99.90;;;;;;4861452;29;20490;-86
2022/07/04 00:49:56;;;;;;;15.88;10.25;;;11.60;99.90;;;;;;4850587;29;20144;-87
2022/07/04 00:52:21;;;;;;;13.77;9.10;;;11.60;99.90;;;;;;4885389;29;20079;-87
2022/07/04 00:54:47;;;;;;;12.48;9.18;;;11.60;99.90;;;;;;4861843;29;20101;-87
2022/07/04 00:57:13;;;;;;;13.18;9.43;;;11.60;99.90;;;;;;4881834;29;20060;-88
2022/07/04 00:59:38;;;;;;;14.98;10.32;;;11.60;99.90;;;;;;4879424;29;20131;-86
2022/07/04 01:02:04;;;;;;;16.35;9.82;;;11.70;99.90;;;;;;4881883;29;20078;-86
2022/07/04 01:04:30;;;;;;;14.82;9.38;;;11.60;99.90;;;;;;4882528;29;20513;-86
2022/07/04 01:06:56;;;;;;;14.60;9.98;;;11.60;99.90;;;;;;4877213;29;20051;-86
2022/07/04 01:09:22;;;;;;;18.63;9.93;;;11.60;99.90;;;;;;4863565;29;20056;-87
2022/07/04 01:11:51;;;;;;;14.40;9.80;;;11.60;99.90;;;;;;4878069;29;20566;-86
2022/07/04 01:14:17;;;;;;;12.70;9.10;;;11.60;99.90;;;;;;4897036;29;20071;-88
2022/07/04 01:16:43;;;;;;;13.55;9.77;;;11.60;99.90;;;;;;4894420;29;20049;-86
2022/07/04 01:19:08;;;;;;;13.20;10.57;;;11.60;99.90;;;;;;4879449;29;20505;-86
2022/07/04 01:21:34;;;;;;;12.95;9.70;;;11.50;99.90;;;;;;4890823;29;20048;-87
2022/07/04 01:24:00;;;;;;;14.55;9.70;;;11.50;99.90;;;;;;4909394;29;20040;-85
2022/07/04 01:26:27;;;;;;;14.55;11.18;;;11.50;99.90;;;;;;4879303;29;20140;-85
2022/07/04 01:28:53;;;;;;;16.92;10.68;;;11.40;99.90;;;;;;4895095;29;20040;-85
2022/07/04 01:31:19;;;;;;;12.75;9.85;;;11.40;99.90;;;;;;4863805;29;20063;-85
2022/07/04 01:33:44;;;;;;;14.10;10.90;;;11.40;99.90;;;;;;4894552;29;20048;-85
2022/07/04 01:36:10;;;;;;;14.65;10.90;;;11.30;99.90;;;;;;4878336;29;20750;-85
2022/07/04 01:38:35;;;;;;;16.52;11.10;;;11.30;99.90;;;;;;4877292;29;20056;-85
2022/07/04 01:41:01;;;;;;;15.98;11.20;;;11.40;99.90;;;;;;4861375;29;20484;-86
2022/07/04 01:43:27;;;;;;;14.02;10.50;;;11.40;99.90;;;;;;4879427;29;20409;-85
2022/07/04 01:45:52;;;;;;;13.65;10.40;;;11.30;99.90;;;;;;4864746;29;20090;-84
2022/07/04 01:48:18;;;;;;;14.80;10.88;;;11.30;99.90;;;;;;4880103;29;20051;-85
2022/07/04 01:50:44;;;;;;;15.93;10.80;;;11.30;99.90;;;;;;4897748;29;20063;-85
2022/07/04 01:53:09;;;;;;;17.85;12.13;;;11.30;99.90;;;;;;4903769;29;20522;-86
2022/07/04 01:55:35;;;;;;;16.38;11.75;;;11.30;99.90;;;;;;4865831;29;20133;-86
2022/07/04 01:58:01;;;;;;;17.33;11.63;;;11.30;99.90;;;;;;4899864;29;20049;-85
2022/07/04 02:03:11;;;;;;;16.70;12.27;;;11.20;99.90;;;;;;4896177;29;20060;-86
2022/07/04 02:05:38;;;;;;;16.75;12.70;;;11.30;99.90;;;;;;4882337;29;20128;-86
2022/07/04 02:08:08;;;;;;;15.23;12.52;;;11.30;99.90;;;;;;4894577;29;20481;-85
2022/07/04 02:10:34;;;;;;;17.35;12.18;;;11.20;99.90;;;;;;4912367;29;20052;-86
2022/07/04 02:13:01;;;;;;;18.13;12.57;;;11.20;99.90;;;;;;4886813;29;20182;-86
2022/07/04 02:15:41;;;;;;;16.20;12.05;;;11.10;99.90;;;;;;4913549;29;20513;-89
2022/07/04 02:18:09;;;;;;;20.75;13.18;;;11.10;99.90;;;;;;4887483;29;20044;-86
2022/07/04 02:20:36;;;;;;;19.02;13.70;;;11.10;99.90;;;;;;4890726;29;20585;-85
2022/07/04 02:23:03;;;;;;;20.15;12.77;;;11.10;99.90;;;;;;4881799;29;20044;-86
2022/07/04 02:25:29;;;;;;;20.58;13.10;;;11.00;99.90;;;;;;4899668;29;20108;-89
2022/07/04 02:27:55;;;;;;;20.73;14.27;;;11.00;99.90;;;;;;4866885;29;20466;-86
2022/07/04 02:30:22;;;;;;;17.58;12.52;;;11.10;99.90;;;;;;4867256;29;20041;-85
2022/07/04 02:32:47;;;;;;;19.33;13.73;;;11.00;99.90;;;;;;4897927;29;20045;-85
2022/07/04 02:35:13;;;;;;;18.75;14.38;;;11.00;99.90;;;;;;4897903;29;20056;-83
2022/07/04 02:37:39;;;;;;;22.05;14.80;;;10.90;99.90;;;;;;4881420;29;20104;-85
2022/07/04 02:40:06;;;;;;;23.80;14.55;;;11.00;99.90;;;;;;4897548;29;20044;-85
2022/07/04 02:42:32;;;;;;;21.33;14.85;;;11.00;99.90;;;;;;4897459;29;20139;-87
2022/07/04 02:44:58;;;;;;;22.02;15.32;;;11.00;99.90;;;;;;4882075;29;20123;-85
2022/07/04 02:47:24;;;;;;;21.98;14.75;;;10.90;99.90;;;;;;4881799;29;20139;-85
2022/07/04 02:49:50;;;;;;;18.85;13.32;;;10.90;99.90;;;;;;4856973;29;20053;-87
2022/07/04 02:52:16;;;;;;;19.00;13.52;;;10.90;99.90;;;;;;4888197;29;20061;-87
2022/07/04 02:54:42;;;;;;;19.90;14.40;;;10.90;99.90;;;;;;4896650;29;20063;-86
2022/07/04 02:57:08;;;;;;;19.25;13.73;;;10.80;99.90;;;;;;4866447;29;20068;-86
2022/07/04 02:59:33;;;;;;;24.27;15.30;;;10.80;99.90;;;;;;4895194;29;20080;-88
2022/07/04 03:01:59;;;;;;;22.13;14.70;;;10.80;99.90;;;;;;4879896;29;20510;-85
2022/07/04 03:04:25;;;;;;;23.23;12.85;;;10.70;99.90;;;;;;4896581;29;20132;-85
2022/07/04 03:06:51;;;;;;;21.83;13.90;;;10.70;99.90;;;;;;4891293;29;20052;-85
2022/07/04 03:09:16;;;;;;;22.25;13.90;;;10.70;99.90;;;;;;4903674;29;20057;-85
2022/07/04 03:11:43;;;;;;;23.80;15.20;;;10.70;99.90;;;;;;4900224;29;20073;-88
2022/07/04 03:14:10;;;;;;;18.40;13.45;;;10.70;99.90;;;;;;4886226;29;20072;-87
2022/07/04 03:16:35;;;;;;;26.90;15.25;;;10.60;99.90;;;;;;4864047;29;20052;-89
2022/07/04 03:19:01;;;;;;;19.98;13.38;;;10.60;99.90;;;;;;4881017;29;20067;-87
2022/07/04 03:21:26;;;;;;;19.48;14.32;;;10.60;99.90;;;;;;4864665;29;20041;-86
2022/07/04 03:23:58;;;;;;;21.15;14.18;;;10.60;99.90;;;;;;4883018;29;20044;-89
2022/07/04 03:26:31;;;;;;;23.38;15.95;;;10.60;99.90;;;;;;4869887;29;20490;-85
2022/07/04 03:28:59;;;;;;;21.92;15.77;;;10.60;99.90;;;;;;4865776;29;20044;-86
2022/07/04 03:31:25;;;;;;;21.13;14.57;;;10.60;99.90;;;;;;4885846;29;20143;-85
2022/07/04 03:33:52;;;;;;;24.33;15.85;;;10.60;99.90;;;;;;4885745;29;20385;-85
2022/07/04 03:36:18;;;;;;;26.08;16.58;;;10.70;99.90;;;;;;4869282;29;20080;-85
2022/07/04 03:38:44;;;;;;;23.55;15.88;;;10.70;99.90;;;;;;4885247;29;20477;-85
2022/07/04 03:41:10;;;;;;;22.48;16.17;;;10.70;99.90;;;;;;4902482;29;20040;-85
2022/07/04 03:43:36;;;;;;;25.95;15.82;;;10.80;99.90;;;;;;4867677;29;20048;-85
2022/07/04 03:46:01;;;;;;;23.58;16.63;;;10.90;99.90;;;;;;4864303;29;20045;-86
2022/07/04 03:48:27;;;;;;;29.85;15.93;;;10.90;99.90;;;;;;4881196;29;20059;-85
2022/07/04 03:50:56;;;;;;;26.40;17.75;;;10.90;99.90;;;;;;4869449;29;20072;-86
2022/07/04 03:53:21;;;;;;;24.17;16.58;;;10.90;99.90;;;;;;4905909;29;20424;-85
2022/07/04 03:55:48;;;;;;;27.20;17.35;;;11.00;99.90;;;;;;4902172;29;20048;-86
2022/07/04 03:58:13;;;;;;;25.00;17.08;;;11.00;99.90;;;;;;4901768;29;20057;-86
2022/07/04 04:00:39;;;;;;;22.90;16.65;;;11.00;99.90;;;;;;4884196;29;20060;-86
2022/07/04 04:05:26;;;;;;;24.35;16.45;;;11.10;99.90;;;;;;4895786;29;20105;-85
2022/07/04 04:05:54;;;;;;;26.73;17.55;;;11.00;99.90;;;;;;4887134;29;20068;-85
2022/07/04 04:08:20;;;;;;;26.67;18.40;;;11.10;99.90;;;;;;4879064;29;20429;-85
2022/07/04 04:10:46;;;;;;;26.50;17.27;;;11.00;99.90;;;;;;4896929;29;20052;-85
2022/07/04 04:13:11;;;;;;;25.55;15.98;;;11.10;99.90;;;;;;4876715;29;20190;-85
2022/07/04 04:15:37;;;;;;;25.15;17.30;;;11.10;99.90;;;;;;4862047;29;20136;-85
2022/07/04 04:18:03;;;;;;;26.58;17.65;;;11.20;99.90;;;;;;4889693;29;20055;-86
2022/07/04 04:20:29;;;;;;;29.90;17.85;;;11.20;99.90;;;;;;4881253;29;20053;-86
2022/07/04 04:22:54;;;;;;;25.52;17.35;;;11.30;99.90;;;;;;4885855;29;20063;-86
2022/07/04 04:25:20;;;;;;;19.17;15.00;;;11.40;99.90;;;;;;4900600;29;20777;-87
2022/07/04 04:27:46;;;;;;;27.98;17.90;;;11.40;99.90;;;;;;4891214;29;20051;-88
2022/07/04 04:30:12;;;;;;;21.80;15.65;;;11.40;99.90;;;;;;4875222;29;20053;-84
2022/07/04 04:32:37;;;;;;;26.75;17.15;;;11.50;99.90;;;;;;4861751;29;20047;-85
2022/07/04 04:35:03;;;;;;;25.52;17.85;;;11.50;99.90;;;;;;4876855;29;20677;-85
2022/07/04 04:37:29;;;;;;;24.05;16.77;;;11.60;99.90;;;;;;4877863;29;20056;-84
2022/07/04 04:39:54;;;;;;;23.05;17.13;;;11.60;99.90;;;;;;4877389;29;20045;-87
2022/07/04 04:42:20;;;;;;;27.50;17.92;;;11.70;99.90;;;;;;4868588;29;20112;-86
2022/07/04 04:44:46;;;;;;;23.35;17.40;;;11.80;99.90;;;;;;4884253;29;20048;-89
2022/07/04 04:47:11;;;;;;;22.67;17.98;;;11.90;99.90;;;;;;4888527;29;20115;-86
2022/07/04 04:49:37;;;;;;;24.27;16.63;;;12.00;99.90;;;;;;4867035;29;20505;-86
2022/07/04 04:52:03;;;;;;;23.48;17.30;;;12.00;99.90;;;;;;4864118;29;20076;-86
2022/07/04 04:54:29;;;;;;;20.98;15.88;;;12.00;99.90;;;;;;4833644;29;20080;-87
2022/07/04 04:56:55;;;;;;;21.48;15.95;;;12.10;99.90;;;;;;4868611;29;20084;-87
2022/07/04 04:59:20;;;;;;;22.73;16.30;;;12.20;99.90;;;;;;4860920;29;20089;-87
2022/07/04 05:01:46;;;;;;;23.98;16.83;;;12.30;99.90;;;;;;4819788;29;20052;-89
2022/07/04 05:04:14;;;;;;;25.58;15.15;;;12.30;99.90;;;;;;4836121;29;20645;-86
2022/07/04 05:06:40;;;;;;;22.88;15.30;;;12.30;99.90;;;;;;4834836;29;20148;-89
2022/07/04 05:09:06;;;;;;;21.25;13.25;;;12.40;99.90;;;;;;4828611;29;20049;-88
2022/07/04 05:11:31;;;;;;;19.15;13.55;;;12.50;99.90;;;;;;4870095;29;20152;-86
2022/07/04 05:13:57;;;;;;;21.08;14.93;;;12.50;99.90;;;;;;4835011;29;20068;-87
2022/07/04 05:16:23;;;;;;;17.67;12.65;;;12.60;99.90;;;;;;4851625;29;20053;-86
2022/07/04 05:18:48;;;;;;;19.92;14.30;;;12.70;99.90;;;;;;4864892;29;20108;-86
2022/07/04 05:21:14;;;;;;;22.15;14.60;;;12.70;99.90;;;;;;4874405;29;20057;-86
2022/07/04 05:23:40;;;;;;;17.52;13.80;;;12.80;99.90;;;;;;4842971;29;20077;-86
2022/07/04 05:26:05;;;;;;;22.65;14.80;;;12.80;99.90;;;;;;4853892;29;20104;-85
2022/07/04 05:28:31;;;;;;;19.90;14.30;;;12.90;99.90;;;;;;4845112;29;20045;-86
2022/07/04 05:30:57;;;;;;;23.95;14.13;;;13.00;99.90;;;;;;4854437;29;20463;-87
2022/07/04 05:33:22;;;;;;;17.40;13.05;;;13.10;99.90;;;;;;4833191;29;20072;-86
2022/07/04 05:35:48;;;;;;;19.35;14.25;;;13.10;99.90;;;;;;4829939;29;20037;-86
2022/07/04 05:38:14;;;;;;;20.70;13.73;;;13.20;99.90;;;;;;4848666;29;20061;-86
2022/07/04 05:40:39;;;;;;;21.73;13.40;;;13.20;99.90;;;;;;4840226;29;20053;-86
2022/07/04 05:43:05;;;;;;;22.25;13.65;;;13.30;99.90;;;;;;4835203;29;20105;-86
2022/07/04 05:45:30;;;;;;;18.90;13.77;;;13.30;99.90;;;;;;4824277;29;20053;-89
2022/07/04 05:47:56;;;;;;;16.95;12.32;;;13.40;99.90;;;;;;4820158;29;20124;-88
2022/07/04 05:50:22;;;;;;;20.70;12.38;;;13.50;99.90;;;;;;4840913;29;20140;-85
2022/07/04 05:52:47;;;;;;;15.07;12.45;;;13.60;99.90;;;;;;4859058;29;20498;-85
2022/07/04 05:55:13;;;;;;;17.58;12.45;;;13.70;99.90;;;;;;4847322;29;20057;-86
2022/07/04 05:57:39;;;;;;;19.90;13.18;;;13.80;99.90;;;;;;4851309;29;20052;-85
2022/07/04 06:00:05;;;;;;;16.48;11.85;;;13.80;99.90;;;;;;4859308;29;20053;-85
2022/07/04 06:02:31;;;;;;;17.20;12.20;;;13.90;99.90;;;;;;4821102;29;20444;-86
2022/07/04 06:04:56;;;;;;;20.83;11.48;;;13.90;99.90;;;;;;4847881;29;20048;-88
2022/07/04 06:07:22;;;;;;;15.45;11.32;;;14.00;99.90;;;;;;4864917;29;20052;-85
2022/07/04 06:09:48;;;;;;;19.60;11.23;;;14.10;99.90;;;;;;4833201;29;20049;-85
2022/07/04 06:12:13;;;;;;;15.15;10.45;;;14.20;99.90;;;;;;4871123;29;20052;-85
2022/07/04 06:14:39;;;;;;;15.80;10.57;;;14.30;99.90;;;;;;4848032;29;20055;-85
2022/07/04 06:17:05;;;;;;;13.20;9.32;;;14.40;99.90;;;;;;4856488;29;20080;-85
2022/07/04 06:19:31;;;;;;;14.50;9.15;;;14.50;99.90;;;;;;4869391;29;20080;-85
2022/07/04 06:21:56;;;;;;;13.45;8.75;;;14.70;99.90;;;;;;4858613;29;20093;-85
2022/07/04 06:24:22;;;;;;;13.00;7.88;;;14.80;99.90;;;;;;4866755;29;20053;-85
2022/07/04 06:26:48;;;;;;;13.30;7.55;;;14.90;99.90;;;;;;4881826;29;20459;-85
2022/07/04 06:29:14;;;;;;;11.57;6.47;;;15.00;99.90;;;;;;4862590;29;20048;-86
2022/07/04 06:31:39;;;;;;;11.93;6.85;;;15.20;99.90;;;;;;4872761;29;20048;-86
2022/07/04 06:36:49;;;;;;;9.40;5.35;;;15.60;99.90;;;;;;4864301;29;20060;-85
2022/07/04 06:39:15;;;;;;;11.98;5.15;;;15.80;99.90;;;;;;4823019;29;20057;-85
2022/07/04 06:41:40;;;;;;;6.47;3.95;;;16.00;99.90;;;;;;4866836;29;20088;-85
2022/07/04 06:44:06;;;;;;;13.82;4.85;;;16.20;99.90;;;;;;4864114;29;20041;-85
2022/07/04 06:46:32;;;;;;;11.95;4.68;;;16.30;99.90;;;;;;4849247;29;20410;-85
2022/07/04 06:48:57;;;;;;;9.20;4.13;;;16.50;99.90;;;;;;4833263;29;20044;-85
2022/07/04 06:51:23;;;;;;;6.47;3.78;;;16.60;99.90;;;;;;4874627;29;20068;-85
2022/07/04 06:53:50;;;;;;;6.22;3.72;;;16.80;99.90;;;;;;4878694;29;20045;-85
2022/07/04 06:56:16;;;;;;;6.90;3.50;;;17.00;99.90;;;;;;4906889;29;20478;-84
2022/07/04 06:58:42;;;;;;;8.45;3.80;;;17.30;99.90;;;;;;4878192;29;20384;-87
2022/07/04 07:01:08;;;;;;;3.92;3.30;;;17.50;99.90;;;;;;4885208;29;20051;-86
2022/07/04 07:03:33;;;;;;;7.80;3.33;;;17.70;99.90;;;;;;4876585;29;20469;-84
2022/07/04 07:05:59;;;;;;;6.10;2.75;;;17.90;99.90;;;;;;4894881;29;20041;-84
2022/07/04 07:08:26;;;;;;;6.35;3.13;;;18.40;99.90;;;;;;4899867;29;20101;-84
2022/07/04 07:10:52;;;;;;;7.30;3.67;;;19.00;99.90;;;;;;4884727;29;20040;-85
2022/07/04 07:13:17;;;;;;;8.27;3.72;;;19.30;99.90;;;;;;4881399;29;20044;-84
2022/07/04 07:15:43;;;;;;;9.57;3.92;;;19.60;99.90;;;;;;4897516;29;20048;-85
2022/07/04 07:18:09;;;;;;;9.43;3.85;;;19.80;99.90;;;;;;4914772;29;20044;-85
2022/07/04 07:20:34;;;;;;;7.05;3.45;;;19.70;99.90;;;;;;4916217;29;20063;-84
2022/07/04 07:23:04;;;;;;;6.85;3.90;;;19.70;99.90;;;;;;4894753;29;20052;-84
2022/07/04 07:25:30;;;;;;;11.77;4.57;;;19.70;99.90;;;;;;4881563;29;20044;-84
2022/07/04 07:27:56;;;;;;;5.65;3.45;;;19.70;99.90;;;;;;4915662;29;20052;-85
2022/07/04 07:30:22;;;;;;;9.90;3.70;;;19.90;99.90;;;;;;4911730;29;20496;-84
2022/07/04 07:32:48;;;;;;;17.05;5.25;;;20.10;99.90;;;;;;4884710;29;20060;-84
2022/07/04 07:35:14;;;;;;;8.13;3.47;;;20.40;99.90;;;;;;4914844;29;20524;-85
2022/07/04 07:37:41;;;;;;;8.38;3.30;;;20.80;99.90;;;;;;4887956;29;20064;-84
2022/07/04 07:40:08;;;;;;;8.07;3.55;;;21.00;99.90;;;;;;4902284;29;20048;-85
2022/07/04 07:42:34;;;;;;;9.93;3.55;;;20.80;98.10;;;;;;4866554;29;20084;-84
2022/07/04 07:45:00;;;;;;;12.52;3.40;;;20.50;99.90;;;;;;4897622;29;20087;-84
2022/07/04 07:47:25;;;;;;;9.57;3.40;;;20.30;99.90;;;;;;4897332;29;20449;-84
2022/07/04 07:49:51;;;;;;;8.55;4.18;;;20.20;78.00;;;;;;4896480;29;20067;-84
2022/07/04 07:52:17;;;;;;;9.35;3.95;;;20.10;93.10;;;;;;4913250;29;20490;-83
2022/07/04 07:54:43;;;;;;;7.20;3.20;;;19.80;92.00;;;;;;4911915;29;20059;-85
2022/07/04 07:57:09;;;;;;;8.02;3.20;;;19.80;89.60;;;;;;4866441;29;20069;-84
2022/07/04 07:59:34;;;;;;;7.85;3.42;;;19.70;95.50;;;;;;4877429;29;20049;-84
2022/07/04 08:02:00;;;;;;;6.70;3.17;;;20.10;76.40;;;;;;4869342;29;20068;-84
2022/07/04 08:04:35;;;;;;;7.50;3.17;;;20.50;83.30;;;;;;4862207;29;20052;-85
2022/07/04 08:07:05;;;;;;;12.38;3.03;;;20.70;34.50;;;;;;4897382;29;20063;-85
2022/07/04 08:09:31;;;;;;;7.32;2.83;;;20.40;37.10;;;;;;4897501;29;20056;-87
2022/07/04 08:11:58;;;;;;;7.97;2.58;;;20.10;34.50;;;;;;4898791;29;20513;-84
2022/07/04 08:14:24;;;;;;;7.47;2.45;;;20.60;52.90;;;;;;4898102;29;20098;-84
2022/07/04 08:16:50;;;;;;;8.35;2.88;;;21.00;7.10;;;;;;4896411;29;20383;-84
2022/07/04 08:19:15;;;;;;;8.38;2.88;;;21.00;45.70;;;;;;4885164;29;20183;-90
2022/07/04 08:21:41;;;;;;;8.48;2.22;;;21.30;65.20;;;;;;4885978;29;20064;-84
2022/07/04 08:24:07;;;;;;;8.02;2.08;;;21.80;5.40;;;;;;4862825;29;20057;-84
2022/07/04 08:26:33;;;;;;;9.13;2.22;;;22.30;26.80;;;;;;4880663;29;20048;-85
2022/07/04 08:28:59;;;;;;;6.30;1.73;;;22.80;15.90;;;;;;4888327;29;20051;-84
2022/07/04 08:31:26;;;;;;;10.00;2.58;;;23.00;11.10;;;;;;4892107;29;20406;-84
2022/07/04 08:33:52;;;;;;;9.00;2.10;;;23.30;1.00;;;;;;4889405;29;20063;-83
2022/07/04 08:36:18;;;;;;;6.07;1.92;;;23.20;1.00;;;;;;4893226;29;20048;-88
2022/07/04 08:38:44;;;;;;;6.72;1.60;;;23.40;1.00;;;;;;4881668;29;20131;-84
2022/07/04 08:41:11;;;;;;;4.63;1.42;;;23.70;1.00;;;;;;4897510;29;20147;-85
2022/07/04 08:43:39;;;;;;;4.38;1.38;;;24.10;1.00;;;;;;4884644;29;20064;-86
2022/07/04 08:46:06;;;;;;;6.95;1.85;;;24.50;1.00;;;;;;4884758;29;20104;-84
2022/07/04 08:48:32;;;;;;;7.75;2.10;;;24.60;1.00;;;;;;4884380;29;20052;-84
2022/07/04 08:51:14;;;;;;;5.55;1.75;;;24.60;1.00;;;;;;4893128;29;20110;-83
2022/07/04 08:53:49;;;;;;;4.82;1.38;;;24.50;1.00;;;;;;4900547;29;20112;-84
2022/07/04 08:58:59;;;;;;;6.95;1.73;;;24.30;1.00;;;;;;4879729;29;20059;-84
2022/07/04 09:01:27;;;;;;;6.10;1.27;;;23.80;1.00;;;;;;4889950;29;20048;-84
2022/07/04 09:03:54;;;;;;;4.90;1.50;;;23.10;1.00;;;;;;4908951;29;20101;-84
2022/07/04 09:06:20;;;;;;;4.47;1.42;;;22.30;1.00;;;;;;4900115;29;20044;-90
2022/07/04 09:08:46;;;;;;;4.38;1.33;;;21.80;1.00;;;;;;4869299;29;20049;-84
2022/07/04 09:11:12;;;;;;;5.82;1.30;;;21.30;1.00;;;;;;4916042;29;20095;-83
2022/07/04 09:13:38;;;;;;;5.00;1.50;;;20.90;1.00;;;;;;4895370;29;20057;-84
2022/07/04 09:16:04;;;;;;;5.53;1.40;;;20.60;1.00;;;;;;4883908;29;20108;-84
2022/07/04 09:18:32;;;;;;;4.25;1.70;;;20.40;1.00;;;;;;4868804;29;20051;-83
2022/07/04 09:21:03;;;;;;;3.60;1.17;;;20.10;1.00;;;;;;4900621;29;20062;-84
2022/07/04 09:23:35;;;;;;;5.55;1.38;;;19.90;1.00;;;;;;4899829;29;20052;-84
2022/07/04 09:26:21;;;;;;;4.97;1.20;;;20.00;1.00;;;;;;4898697;29;20063;-83
2022/07/04 09:28:56;;;;;;;5.32;2.00;;;20.00;1.00;;;;;;4902330;29;20052;-84
2022/07/04 09:31:27;;;;;;;3.85;1.17;;;20.60;1.00;;;;;;4897204;29;20494;-88
2022/07/04 09:33:59;;;;;;;6.10;1.35;;;21.80;1.00;;;;;;4879451;29;20048;-84
2022/07/04 09:36:30;;;;;;;4.47;1.10;;;23.20;1.00;;;;;;4900223;29;20397;-89
2022/07/04 09:39:12;;;;;;;3.20;1.13;;;24.50;1.00;;;;;;4887623;29;20117;-85
2022/07/04 09:42:04;;;;;;;2.95;0.98;;;25.60;1.00;;;;;;4902681;29;20486;-84
2022/07/04 09:44:36;;;;;;;2.38;0.80;;;26.40;1.00;;;;;;4863053;29;20053;-84
2022/07/04 09:47:23;;;;;;;1.80;0.98;;;26.60;1.00;;;;;;4896866;29;20052;-84
2022/07/04 09:50:05;;;;;;;1.73;0.90;;;25.70;1.00;;;;;;4915393;29;20060;-84
2022/07/04 09:52:32;;;;;;;2.03;0.77;;;24.50;1.00;;;;;;4909777;29;20057;-84
2022/07/04 09:55:05;;;;;;;1.65;0.70;;;24.40;1.00;;;;;;4899600;29;20056;-84
2022/07/04 09:57:32;;;;;;;4.13;0.88;;;25.30;1.00;;;;;;4893461;29;20529;-85
2022/07/04 10:00:22;;;;;;;1.45;0.52;;;25.80;1.00;;;;;;4880465;29;20517;-84
2022/07/04 10:02:48;;;;;;;2.03;0.70;;;25.50;1.00;;;;;;4866838;29;20618;-83
2022/07/04 10:05:29;;;;;;;2.90;0.70;;;25.50;1.00;;;;;;4883474;29;20044;-83
2022/07/04 10:07:57;;;;;;;4.00;0.55;;;25.60;1.00;;;;;;4888512;29;20052;-83
2022/07/04 10:10:26;;;;;;;1.63;0.50;;;26.60;1.00;;;;;;4901276;29;20055;-83
2022/07/04 10:12:54;;;;;;;1.60;0.60;;;27.60;1.00;;;;;;4922169;29;20048;-83
2022/07/04 10:15:20;;;;;;;1.73;0.57;;;27.90;1.00;;;;;;4887357;29;20096;-83
2022/07/04 10:17:46;;;;;;;1.88;0.60;;;28.10;1.00;;;;;;4898412;29;20206;-84
2022/07/04 10:20:13;;;;;;;1.83;0.68;;;28.20;1.00;;;;;;4903513;29;20142;-84
2022/07/04 10:22:40;;;;;;;2.25;0.68;;;27.60;1.00;;;;;;4907500;29;20044;-83
2022/07/04 10:25:07;;;;;;;1.50;0.73;;;27.30;1.00;;;;;;4888613;29;20079;-83
2022/07/04 10:27:34;;;;;;;2.15;0.57;;;27.30;1.00;;;;;;4906720;29;20064;-83
2022/07/04 10:30:01;;;;;;;3.13;0.70;;;27.00;1.00;;;;;;4881370;29;20131;-83
2022/07/04 10:32:29;;;;;;;1.80;0.82;;;27.10;1.00;;;;;;4875399;29;20067;-83
2022/07/04 10:34:54;;;;;;;2.08;0.80;;;27.30;1.00;;;;;;4887538;29;20052;-83
2022/07/04 10:37:21;;;;;;;1.75;0.60;;;27.60;1.00;;;;;;4886150;29;20051;-83
2022/07/04 10:39:47;;;;;;;3.17;0.60;;;28.10;1.00;;;;;;4917941;29;20048;-85
2022/07/04 10:42:24;;;;;;;2.85;0.77;;;28.00;1.00;;;;;;4900606;29;20073;-83
2022/07/04 10:44:49;;;;;;;3.20;0.70;;;27.10;1.00;;;;;;4899995;29;20057;-84
2022/07/04 10:47:27;;;;;;;2.15;0.73;;;27.00;1.00;;;;;;4897892;29;20059;-84
2022/07/04 10:49:53;;;;;;;1.75;0.70;;;26.80;1.00;;;;;;4882114;29;20645;-83
2022/07/04 10:52:19;;;;;;;2.38;0.70;;;26.40;1.00;;;;;;4897802;29;20063;-83
2022/07/04 10:54:45;;;;;;;3.22;1.23;;;25.80;1.00;;;;;;4857300;29;20064;-83
2022/07/04 10:57:19;;;;;;;1.63;0.77;;;25.30;1.00;;;;;;4899808;29;20411;-84
2022/07/04 10:59:54;;;;;;;1.77;1.10;;;24.90;1.00;;;;;;4909304;29;20041;-83
2022/07/04 11:02:22;;;;;;;2.58;0.70;;;24.50;1.00;;;;;;4894838;29;20056;-84
2022/07/04 11:04:47;;;;;;;1.27;0.75;;;24.60;1.00;;;;;;4870549;29;20481;-84
2022/07/04 11:07:18;;;;;;;1.40;0.85;;;26.00;99.90;;;;;;4910142;29;20055;-83
2022/07/04 11:09:45;;;;;;;1.52;0.80;;;27.10;1.00;;;;;;4899925;29;20059;-84
2022/07/04 11:12:14;;;;;;;2.75;1.13;;;27.00;1.00;;;;;;4898852;29;20796;-83
2022/07/04 11:14:49;;;;;;;2.63;0.93;;;26.40;99.90;;;;;;4897907;29;20390;-84
2022/07/04 11:17:18;;;;;;;1.90;0.95;;;25.00;99.90;;;;;;4866482;29;20057;-84
2022/07/04 11:19:44;;;;;;;2.97;1.10;;;23.90;1.00;;;;;;4908652;29;20037;-84
2022/07/04 11:22:10;;;;;;;2.60;0.90;;;23.50;1.00;;;;;;4892852;29;20052;-83
2022/07/04 11:24:38;;;;;;;3.05;1.00;;;24.30;1.00;;;;;;4886214;29;20052;-88
2022/07/04 11:27:06;;;;;;;2.80;0.80;;;24.10;1.00;;;;;;4903149;29;20053;-83
2022/07/04 11:29:32;;;;;;;1.98;0.75;;;24.10;1.00;;;;;;4914389;29;20836;-84
2022/07/04 11:31:57;;;;;;;1.90;0.85;;;25.00;1.00;;;;;;4869403;29;20057;-84
2022/07/04 11:34:24;;;;;;;2.72;0.82;;;25.80;1.00;;;;;;4878621;29;20124;-83
2022/07/04 11:36:51;;;;;;;3.15;1.17;;;27.00;1.00;;;;;;4890050;29;20052;-83
2022/07/04 11:39:20;;;;;;;1.33;0.70;;;27.50;1.00;;;;;;4897447;29;20103;-84
2022/07/04 11:47:41;;;;;;;1.55;0.70;;;28.80;1.00;;;;;;4896320;29;20562;-83
2022/07/04 11:50:09;;;;;;;3.38;0.80;;;29.50;99.90;;;;;;4883177;29;20060;-83
2022/07/04 11:52:38;;;;;;;1.73;0.70;;;29.40;1.00;;;;;;4881352;29;20087;-84
2022/07/04 11:55:05;;;;;;;2.67;0.70;;;28.60;1.00;;;;;;4897569;29;20113;-84
2022/07/04 11:57:43;;;;;;;2.38;0.52;;;29.10;1.00;;;;;;4878324;29;20053;-90
2022/07/04 12:00:14;;;;;;;3.15;0.60;;;29.00;1.00;;;;;;4896424;29;20055;-83
2022/07/04 12:02:41;;;;;;;1.40;0.52;;;27.40;99.90;;;;;;4866508;29;20053;-83
2022/07/04 12:05:09;;;;;;;3.03;0.73;;;26.40;99.90;;;;;;4880316;29;20541;-84
2022/07/04 12:07:37;;;;;;;2.95;0.70;;;26.30;99.90;;;;;;4896857;29;20044;-84
2022/07/04 12:10:10;;;;;;;3.20;0.82;;;26.50;99.90;;;;;;4902149;29;20188;-84
2022/07/04 12:12:52;;;;;;;1.73;0.68;;;27.40;99.90;;;;;;4913152;29;20513;-84
2022/07/04 12:15:18;;;;;;;2.85;0.70;;;27.70;99.90;;;;;;4887304;29;20063;-83
2022/07/04 12:17:44;;;;;;;2.97;0.80;;;27.50;99.90;;;;;;4899074;29;20056;-85
2022/07/04 12:20:17;;;;;;;1.42;0.60;;;27.10;99.90;;;;;;4897611;29;20045;-83
2022/07/04 12:22:49;;;;;;;1.83;0.70;;;27.50;99.90;;;;;;4866800;29;20059;-86
2022/07/04 12:25:24;;;;;;;3.05;0.90;;;28.20;99.90;;;;;;4896557;29;20052;-84
2022/07/04 12:28:00;;;;;;;3.35;0.80;;;28.30;99.90;;;;;;4894061;29;20394;-84
2022/07/04 12:30:29;;;;;;;4.55;1.00;;;27.30;99.90;;;;;;4896799;29;20059;-83
2022/07/04 12:33:08;;;;;;;1.75;0.70;;;27.70;99.90;;;;;;4897875;29;20461;-83
2022/07/04 12:35:51;;;;;;;3.90;0.90;;;28.20;99.90;;;;;;4882750;29;20055;-84
2022/07/04 12:38:29;;;;;;;1.38;0.63;;;28.80;99.90;;;;;;4896860;29;20049;-83
2022/07/04 12:41:12;;;;;;;2.80;1.00;;;28.50;99.90;;;;;;4896633;29;20052;-84
2022/07/04 12:43:41;;;;;;;1.52;0.63;;;27.60;99.90;;;;;;4880859;29;20494;-84
2022/07/04 12:46:08;;;;;;;2.70;0.90;;;27.10;99.90;;;;;;4896146;29;20147;-83
2022/07/04 12:48:34;;;;;;;2.97;0.70;;;26.90;99.90;;;;;;4883846;29;20056;-84
2022/07/04 12:51:11;;;;;;;2.35;0.68;;;26.00;99.90;;;;;;4892682;29;20069;-84
2022/07/04 12:53:39;;;;;;;3.38;0.70;;;25.50;99.90;;;;;;4902222;29;20493;-84
2022/07/04 12:56:05;;;;;;;2.42;0.80;;;25.30;99.90;;;;;;4896099;29;20048;-84